createdAt,value
2022-08-14T00:02:21.047Z,20.80
2022-08-14T00:04:47.557Z,20.77
2022-08-14T00:07:14.597Z,20.75
2022-08-14T00:10:01.830Z,20.74
2022-08-14T00:12:33.792Z,20.72
2022-08-14T00:15:15.193Z,20.68
2022-08-14T00:17:48.150Z,20.67
2022-08-14T00:20:23.384Z,20.65
2022-08-14T00:22:57.490Z,20.63
2022-08-14T00:25:24.463Z,20.61
2022-08-14T00:27:56.954Z,20.57
2022-08-14T00:30:23.313Z,20.55
2022-08-14T00:32:56.629Z,20.52
2022-08-14T00:35:43.024Z,20.48
2022-08-14T00:38:09.288Z,20.45
2022-08-14T00:40:36.237Z,20.41
2022-08-14T00:43:02.694Z,20.41
2022-08-14T00:45:30.471Z,20.40
2022-08-14T00:47:57.467Z,20.39
2022-08-14T00:50:26.399Z,20.37
2022-08-14T00:52:54.420Z,20.34
2022-08-14T00:55:20.714Z,20.32
2022-08-14T00:57:47.056Z,20.30
2022-08-14T01:00:34.330Z,20.28
2022-08-14T01:03:03.399Z,20.26
2022-08-14T01:05:41.760Z,20.27
2022-08-14T01:08:50.605Z,20.26
2022-08-14T01:11:02.202Z,20.23
2022-08-14T01:13:42.258Z,20.23
2022-08-14T01:16:09.363Z,20.19
2022-08-14T01:18:40.242Z,20.16
2022-08-14T01:21:06.477Z,20.15
2022-08-14T01:23:41.672Z,20.13
2022-08-14T01:26:12.722Z,20.14
2022-08-14T01:28:56.791Z,20.14
2022-08-14T01:31:24.050Z,20.16
2022-08-14T01:35:15.773Z,20.16
2022-08-14T01:36:36.768Z,20.18
2022-08-14T01:39:03.362Z,20.19
2022-08-14T01:41:36.074Z,20.19
2022-08-14T01:44:02.478Z,20.20
2022-08-14T01:46:33.489Z,20.19
2022-08-14T01:49:03.168Z,20.20
2022-08-14T01:51:29.441Z,20.20
2022-08-14T01:53:56.419Z,20.19
2022-08-14T01:56:22.864Z,20.21
2022-08-14T01:58:58.169Z,20.21
2022-08-14T02:01:26.448Z,20.23
2022-08-14T02:03:53.387Z,20.24
2022-08-14T02:06:33.257Z,20.26
2022-08-14T02:09:00.047Z,20.27
2022-08-14T02:11:26.368Z,20.29
2022-08-14T02:13:52.703Z,20.29
2022-08-14T02:16:22.300Z,20.31
2022-08-14T02:18:49.540Z,20.33
2022-08-14T02:21:15.799Z,20.33
2022-08-14T02:23:45.796Z,20.34
2022-08-14T02:26:24.340Z,20.36
2022-08-14T02:28:57.617Z,20.35
2022-08-14T02:31:36.007Z,20.32
2022-08-14T02:34:02.760Z,20.29
2022-08-14T02:37:02.639Z,20.25
2022-08-14T02:39:27.759Z,20.23
2022-08-14T02:41:58.016Z,20.21
2022-08-14T02:44:29.600Z,20.21
2022-08-14T02:47:01.491Z,20.20
2022-08-14T02:49:34.287Z,20.20
2022-08-14T02:52:00.666Z,20.21
2022-08-14T02:54:26.909Z,20.22
2022-08-14T02:57:13.934Z,20.23
2022-08-14T02:59:39.592Z,20.23
2022-08-14T03:02:09.647Z,20.23
2022-08-14T03:04:55.864Z,20.22
2022-08-14T03:07:22.127Z,20.23
2022-08-14T03:10:27.680Z,20.23
2022-08-14T03:12:36.403Z,20.25
2022-08-14T03:15:02.630Z,20.23
2022-08-14T03:17:31.924Z,20.23
2022-08-14T03:20:07.677Z,20.21
2022-08-14T03:22:37.788Z,20.21
2022-08-14T03:25:08.219Z,20.20
2022-08-14T03:27:48.423Z,20.20
2022-08-14T03:30:23.657Z,20.19
2022-08-14T03:32:49.988Z,20.19
2022-08-14T03:35:17.757Z,20.18
2022-08-14T03:39:10.616Z,20.14
2022-08-14T03:40:30.260Z,20.10
2022-08-14T03:42:56.488Z,20.08
2022-08-14T03:45:34.686Z,20.05
2022-08-14T03:48:01.612Z,20.02
2022-08-14T03:50:31.708Z,20.00
2022-08-14T03:53:00.574Z,19.96
2022-08-14T03:55:27.100Z,19.96
2022-08-14T03:57:53.843Z,19.93
2022-08-14T04:00:43.549Z,19.87
2022-08-14T04:03:06.528Z,19.86
2022-08-14T04:05:38.060Z,19.85
2022-08-14T04:08:28.988Z,19.85
2022-08-14T04:10:55.702Z,19.86
2022-08-14T04:13:23.727Z,19.84
2022-08-14T04:15:56.135Z,19.82
2022-08-14T04:18:28.634Z,19.81
2022-08-14T04:20:55.988Z,19.78
2022-08-14T04:23:23.771Z,19.79
2022-08-14T04:25:56.374Z,19.80
2022-08-14T04:29:07.767Z,19.80
2022-08-14T04:31:09.035Z,19.82
2022-08-14T04:33:37.262Z,19.84
2022-08-14T04:36:03.614Z,19.84
2022-08-14T04:38:37.268Z,19.83
2022-08-14T04:41:04.748Z,19.85
2022-08-14T04:43:38.297Z,19.86
2022-08-14T04:46:05.168Z,19.88
2022-08-14T04:48:43.254Z,19.86
2022-08-14T04:51:17.448Z,19.87
2022-08-14T04:53:43.912Z,19.89
2022-08-14T04:56:30.675Z,19.92
2022-08-14T04:58:57.221Z,19.95
2022-08-14T05:01:23.493Z,19.98
2022-08-14T05:03:51.387Z,20.01
2022-08-14T05:06:35.058Z,20.03
2022-08-14T05:09:04.038Z,20.05
2022-08-14T05:11:31.111Z,20.06
2022-08-14T05:14:34.141Z,20.08
2022-08-14T05:16:43.657Z,20.12
2022-08-14T05:19:18.489Z,20.14
2022-08-14T05:21:57.031Z,20.20
2022-08-14T05:24:25.447Z,20.23
2022-08-14T05:26:51.685Z,20.27
2022-08-14T05:29:17.967Z,20.29
2022-08-14T05:31:44.440Z,20.31
2022-08-14T05:34:10.666Z,20.34
2022-08-14T05:36:38.016Z,20.38
2022-08-14T05:39:05.820Z,20.41
2022-08-14T05:41:52.352Z,20.47
2022-08-14T05:44:20.361Z,20.50
2022-08-14T05:46:46.571Z,20.54
2022-08-14T05:49:13.172Z,20.61
2022-08-14T05:51:39.487Z,20.68
2022-08-14T05:54:13.902Z,20.76
2022-08-14T05:56:52.047Z,20.80
2022-08-14T05:59:18.336Z,20.87
2022-08-14T06:01:45.685Z,20.90
2022-08-14T06:04:12.932Z,20.94
2022-08-14T06:06:42.021Z,20.97
2022-08-14T06:09:09.829Z,21.03
2022-08-14T06:11:36.475Z,21.08
2022-08-14T06:14:02.997Z,21.12
2022-08-14T06:16:29.987Z,21.18
2022-08-14T06:18:59.705Z,21.23
2022-08-14T06:21:26.885Z,21.28
2022-08-14T06:23:53.626Z,21.31
2022-08-14T06:26:20.876Z,21.35
2022-08-14T06:28:51.821Z,21.40
2022-08-14T06:31:18.975Z,21.43
2022-08-14T06:35:02.116Z,21.48
2022-08-14T06:36:33.014Z,21.55
2022-08-14T06:38:59.506Z,21.56
2022-08-14T06:41:57.625Z,21.59
2022-08-14T06:44:12.567Z,21.63
2022-08-14T06:46:38.832Z,21.68
2022-08-14T06:49:05.129Z,21.72
2022-08-14T06:51:38.896Z,21.75
2022-08-14T06:54:10.732Z,21.80
2022-08-14T06:56:38.264Z,21.86
2022-08-14T06:59:05.370Z,21.91
2022-08-14T07:01:32.657Z,21.95
2022-08-14T07:03:59.351Z,22.03
2022-08-14T07:06:46.540Z,22.10
2022-08-14T07:09:11.920Z,22.20
2022-08-14T07:11:38.205Z,22.30
2022-08-14T07:14:04.511Z,22.39
2022-08-14T07:16:31.264Z,22.45
2022-08-14T07:18:57.858Z,22.55
2022-08-14T07:21:25.018Z,22.64
2022-08-14T07:23:51.486Z,22.73
2022-08-14T07:26:17.859Z,22.82
2022-08-14T07:28:44.186Z,22.93
2022-08-14T07:31:10.547Z,22.99
2022-08-14T07:33:36.898Z,23.07
2022-08-14T07:36:03.440Z,23.13
2022-08-14T07:38:52.355Z,23.20
2022-08-14T07:41:18.820Z,23.28
2022-08-14T07:43:53.081Z,23.35
2022-08-14T07:46:29.444Z,23.43
2022-08-14T07:48:57.187Z,23.51
2022-08-14T07:51:23.444Z,23.60
2022-08-14T07:53:50.040Z,23.64
2022-08-14T07:56:44.240Z,23.69
2022-08-14T07:59:09.832Z,23.77
2022-08-14T08:01:36.253Z,23.87
2022-08-14T08:04:03.339Z,23.97
2022-08-14T08:06:29.781Z,24.09
2022-08-14T08:09:01.334Z,24.20
2022-08-14T08:11:29.607Z,24.29
2022-08-14T08:14:01.589Z,24.37
2022-08-14T08:16:27.797Z,24.47
2022-08-14T08:18:58.686Z,24.56
2022-08-14T08:21:33.195Z,24.65
2022-08-14T08:24:01.719Z,24.75
2022-08-14T08:26:29.868Z,24.82
2022-08-14T08:28:56.109Z,24.90
2022-08-14T08:31:23.833Z,24.96
2022-08-14T08:33:59.386Z,25.01
2022-08-14T08:36:25.590Z,25.05
2022-08-14T08:39:16.877Z,25.16
2022-08-14T08:41:43.412Z,25.23
2022-08-14T08:44:30.076Z,25.32
2022-08-14T08:46:55.963Z,25.37
2022-08-14T08:49:22.559Z,25.41
2022-08-14T08:51:49.483Z,25.47
2022-08-14T08:54:19.952Z,25.54
2022-08-14T08:56:49.969Z,25.63
2022-08-14T08:59:18.206Z,25.70
2022-08-14T09:01:46.663Z,25.81
2022-08-14T09:04:18.612Z,25.86
2022-08-14T09:07:09.309Z,25.91
2022-08-14T09:09:33.984Z,25.98
2022-08-14T09:12:19.318Z,26.04
2022-08-14T09:14:45.719Z,26.09
2022-08-14T09:17:14.542Z,26.18
2022-08-14T09:19:41.328Z,26.21
2022-08-14T09:22:35.681Z,26.26
2022-08-14T09:24:53.954Z,26.35
2022-08-14T09:27:22.641Z,26.41
2022-08-14T09:29:54.224Z,26.53
2022-08-14T09:32:59.300Z,26.67
2022-08-14T09:35:08.366Z,26.76
2022-08-14T09:37:34.926Z,26.79
2022-08-14T09:40:01.215Z,26.86
2022-08-14T09:42:34.044Z,26.97
2022-08-14T09:45:11.554Z,27.07
2022-08-14T09:47:38.475Z,27.16
2022-08-14T09:50:08.122Z,27.28
2022-08-14T09:52:34.609Z,27.39
2022-08-14T09:55:01.003Z,27.45
2022-08-14T09:57:27.674Z,27.49
2022-08-14T09:59:55.165Z,27.55
2022-08-14T10:02:21.407Z,27.63
2022-08-14T10:04:49.927Z,27.70
2022-08-14T10:07:16.417Z,27.83
2022-08-14T10:09:42.659Z,27.94
2022-08-14T10:12:28.986Z,27.99
2022-08-14T10:14:55.569Z,28.07
2022-08-14T10:17:21.803Z,28.15
2022-08-14T10:19:49.927Z,28.17
2022-08-14T10:23:13.697Z,28.25
2022-08-14T10:25:02.515Z,28.28
2022-08-14T10:27:29.135Z,28.34
2022-08-14T10:29:55.503Z,28.35
2022-08-14T10:32:36.135Z,28.41
2022-08-14T10:35:02.823Z,28.47
2022-08-14T10:37:31.661Z,28.51
2022-08-14T10:40:02.051Z,28.44
2022-08-14T10:42:36.552Z,28.36
2022-08-14T10:45:04.358Z,28.29
2022-08-14T10:47:39.478Z,28.35
2022-08-14T10:50:16.822Z,28.43
2022-08-14T10:52:43.276Z,28.48
2022-08-14T10:55:09.582Z,28.52
2022-08-14T10:57:39.053Z,28.58
2022-08-14T11:00:05.276Z,28.63
2022-08-14T11:02:50.263Z,28.48
2022-08-14T11:05:18.720Z,28.41
2022-08-14T11:07:45.053Z,28.45
2022-08-14T11:10:11.258Z,28.39
2022-08-14T11:12:40.758Z,28.38
2022-08-14T11:15:07.009Z,28.40
2022-08-14T11:17:34.356Z,28.45
2022-08-14T11:20:00.564Z,28.54
2022-08-14T11:22:57.066Z,28.63
2022-08-14T11:25:12.992Z,28.72
2022-08-14T11:27:41.536Z,28.83
2022-08-14T11:30:49.257Z,28.82
2022-08-14T11:32:54.385Z,28.79
2022-08-14T11:35:21.214Z,28.81
2022-08-14T11:37:47.473Z,28.87
2022-08-14T11:40:15.381Z,28.89
2022-08-14T11:42:58.445Z,28.95
2022-08-14T11:45:29.708Z,29.00
2022-08-14T11:48:13.239Z,28.99
2022-08-14T11:50:42.395Z,28.99
2022-08-14T11:53:09.710Z,29.00
2022-08-14T11:55:40.023Z,29.10
2022-08-14T11:58:06.907Z,29.17
2022-08-14T12:00:39.533Z,29.21
2022-08-14T12:03:14.791Z,29.35
2022-08-14T12:05:43.245Z,29.46
2022-08-14T12:08:11.118Z,29.49
2022-08-14T12:10:43.099Z,29.58
2022-08-14T12:13:09.757Z,29.65
2022-08-14T12:15:36.286Z,29.63
2022-08-14T12:18:02.547Z,29.66
2022-08-14T12:20:32.523Z,29.66
2022-08-14T12:22:59.087Z,29.66
2022-08-14T12:25:26.460Z,29.65
2022-08-14T12:27:54.290Z,29.66
2022-08-14T12:30:21.626Z,29.70
2022-08-14T12:32:47.973Z,29.79
2022-08-14T12:35:14.555Z,29.81
2022-08-14T12:37:43.307Z,29.84
2022-08-14T12:40:09.816Z,29.88
2022-08-14T12:42:36.433Z,29.99
2022-08-14T12:45:06.861Z,30.02
2022-08-14T12:47:33.148Z,29.97
2022-08-14T12:49:59.385Z,29.95
2022-08-14T12:52:36.345Z,29.93
2022-08-14T12:55:11.866Z,29.97
2022-08-14T12:57:38.165Z,30.09
2022-08-14T13:00:04.806Z,30.28
2022-08-14T13:02:50.164Z,30.41
2022-08-14T13:05:21.740Z,30.55
2022-08-14T13:07:49.905Z,30.64
2022-08-14T13:10:51.250Z,30.89
2022-08-14T13:13:13.525Z,31.15
2022-08-14T13:15:42.039Z,31.48
2022-08-14T13:18:10.865Z,31.47
2022-08-14T13:20:37.169Z,31.51
2022-08-14T13:23:03.826Z,31.55
2022-08-14T13:25:30.408Z,31.55
2022-08-14T13:27:56.626Z,31.47
2022-08-14T13:30:24.372Z,31.55
2022-08-14T13:32:50.968Z,31.74
2022-08-14T13:35:17.639Z,32.01
2022-08-14T13:37:44.240Z,32.28
2022-08-14T13:40:11.022Z,32.49
2022-08-14T13:42:37.711Z,32.67
2022-08-14T13:45:05.223Z,32.85
2022-08-14T13:47:31.521Z,33.02
2022-08-14T13:49:58.443Z,33.26
2022-08-14T13:52:52.136Z,33.44
2022-08-14T13:55:13.888Z,33.62
2022-08-14T13:57:40.457Z,33.65
2022-08-14T14:00:17.894Z,33.78
2022-08-14T14:02:45.784Z,33.75
2022-08-14T14:05:12.347Z,33.73
2022-08-14T14:07:43.478Z,33.72
2022-08-14T14:10:10.405Z,33.66
2022-08-14T14:12:40.735Z,33.70
2022-08-14T14:15:07.805Z,33.86
2022-08-14T14:17:36.027Z,33.95
2022-08-14T14:20:04.608Z,34.03
2022-08-14T14:22:35.973Z,34.07
2022-08-14T14:25:19.550Z,34.08
2022-08-14T14:27:48.925Z,34.02
2022-08-14T14:30:45.968Z,33.87
2022-08-14T14:33:14.395Z,34.01
2022-08-14T14:35:52.570Z,34.17
2022-08-14T14:38:18.891Z,34.21
2022-08-14T14:40:52.664Z,34.26
2022-08-14T14:43:21.372Z,34.24
2022-08-14T14:45:49.973Z,34.30
2022-08-14T14:48:19.453Z,34.05
2022-08-14T14:50:45.813Z,34.04
2022-08-14T14:53:13.169Z,34.02
2022-08-14T14:55:54.214Z,34.11
2022-08-14T14:58:26.242Z,34.31
2022-08-14T15:00:53.362Z,34.38
2022-08-14T15:03:21.337Z,34.43
2022-08-14T15:05:47.690Z,34.45
2022-08-14T15:08:17.138Z,34.51
2022-08-14T15:10:53.266Z,34.51
2022-08-14T15:13:19.579Z,34.32
2022-08-14T15:15:47.880Z,34.24
2022-08-14T15:18:39.218Z,34.22
2022-08-14T15:21:05.386Z,34.25
2022-08-14T15:23:43.891Z,34.03
2022-08-14T15:26:11.261Z,33.72
2022-08-14T15:28:39.713Z,33.77
2022-08-14T15:31:06.058Z,33.91
2022-08-14T15:33:35.654Z,34.06
2022-08-14T15:36:02.328Z,34.14
2022-08-14T15:38:29.278Z,34.17
2022-08-14T15:40:56.316Z,34.03
2022-08-14T15:43:22.752Z,33.84
2022-08-14T15:45:53.566Z,33.86
2022-08-14T15:48:22.537Z,33.74
2022-08-14T15:50:50.969Z,33.67
2022-08-14T15:53:18.082Z,33.78
2022-08-14T15:55:45.993Z,33.77
2022-08-14T15:58:14.570Z,33.80
2022-08-14T16:00:44.303Z,33.78
2022-08-14T16:03:16.813Z,33.78
2022-08-14T16:05:43.218Z,33.84
2022-08-14T16:08:26.813Z,33.92
2022-08-14T16:10:55.749Z,33.97
2022-08-14T16:13:42.042Z,34.03
2022-08-14T16:16:48.929Z,34.04
2022-08-14T16:18:54.612Z,34.04
2022-08-14T16:21:20.883Z,33.93
2022-08-14T16:23:48.219Z,33.98
2022-08-14T16:26:19.985Z,34.06
2022-08-14T16:28:46.455Z,34.03
2022-08-14T16:31:17.616Z,34.00
2022-08-14T16:33:59.697Z,33.90
2022-08-14T16:36:30.231Z,33.89
2022-08-14T16:38:57.293Z,33.94
2022-08-14T16:41:26.422Z,34.02
2022-08-14T16:43:53.035Z,34.03
2022-08-14T16:46:22.429Z,33.96
2022-08-14T16:48:57.005Z,33.89
2022-08-14T16:51:24.893Z,33.77
2022-08-14T16:53:51.369Z,33.68
2022-08-14T16:56:23.678Z,33.62
2022-08-14T16:58:50.551Z,33.66
2022-08-14T17:01:24.377Z,33.71
2022-08-14T17:03:51.315Z,33.63
2022-08-14T17:06:30.561Z,33.61
2022-08-14T17:08:59.769Z,33.59
2022-08-14T17:11:27.765Z,33.47
2022-08-14T17:14:00.565Z,33.33
2022-08-14T17:16:27.540Z,33.24
2022-08-14T17:19:00.019Z,33.11
2022-08-14T17:21:31.766Z,32.96
2022-08-14T17:23:58.669Z,32.89
2022-08-14T17:26:27.262Z,32.71
2022-08-14T17:28:56.702Z,32.53
2022-08-14T17:31:57.978Z,32.45
2022-08-14T17:34:20.452Z,32.31
2022-08-14T17:36:46.782Z,32.18
2022-08-14T17:39:14.751Z,32.10
2022-08-14T17:41:43.708Z,31.98
2022-08-14T17:44:10.654Z,31.82
2022-08-14T17:46:37.185Z,31.65
2022-08-14T17:49:16.255Z,31.53
2022-08-14T17:51:53.827Z,31.42
2022-08-14T17:54:22.448Z,31.25
2022-08-14T17:56:49.230Z,31.11
2022-08-14T17:59:17.681Z,30.92
2022-08-14T18:01:45.830Z,30.78
2022-08-14T18:04:27.635Z,30.61
2022-08-14T18:06:58.624Z,30.48
2022-08-14T18:09:35.510Z,30.28
2022-08-14T18:12:01.735Z,30.14
2022-08-14T18:14:32.360Z,30.01
2022-08-14T18:17:16.040Z,29.87
2022-08-14T18:19:42.375Z,29.72
2022-08-14T18:22:31.265Z,29.59
2022-08-14T18:24:54.861Z,29.38
2022-08-14T18:27:23.055Z,29.25
2022-08-14T18:29:55.371Z,29.15
2022-08-14T18:32:22.142Z,29.01
2022-08-14T18:34:51.173Z,28.93
2022-08-14T18:37:18.334Z,28.88
2022-08-14T18:40:03.600Z,28.82
2022-08-14T18:42:30.739Z,28.65
2022-08-14T18:44:57.005Z,28.49
2022-08-14T18:47:23.743Z,28.32
2022-08-14T18:49:51.980Z,28.18
2022-08-14T18:52:18.664Z,28.04
2022-08-14T18:54:48.683Z,27.92
2022-08-14T18:57:26.354Z,27.77
2022-08-14T18:59:54.094Z,27.68
2022-08-14T19:02:24.690Z,27.57
2022-08-14T19:04:57.145Z,27.49
2022-08-14T19:07:25.427Z,27.44
2022-08-14T19:09:51.830Z,27.38
2022-08-14T19:12:27.548Z,27.27
2022-08-14T19:14:54.898Z,27.20
2022-08-14T19:17:21.166Z,27.13
2022-08-14T19:19:48.538Z,27.09
2022-08-14T19:22:20.454Z,27.01
2022-08-14T19:24:56.264Z,26.97
2022-08-14T19:27:25.183Z,26.94
2022-08-14T19:29:52.677Z,26.92
2022-08-14T19:32:19.101Z,26.90
2022-08-14T19:34:48.029Z,26.86
2022-08-14T19:37:18.360Z,26.84
2022-08-14T19:39:48.453Z,26.80
2022-08-14T19:42:28.350Z,26.75
2022-08-14T19:44:56.927Z,26.69
2022-08-14T19:47:23.999Z,26.63
2022-08-14T19:50:07.898Z,26.59
2022-08-14T19:52:37.342Z,26.56
2022-08-14T19:55:05.804Z,26.51
2022-08-14T19:57:32.836Z,26.42
2022-08-14T19:59:59.135Z,26.34
2022-08-14T20:02:30.057Z,26.27
2022-08-14T20:04:57.903Z,26.22
2022-08-14T20:07:24.244Z,26.17
2022-08-14T20:11:07.095Z,26.11
2022-08-14T20:12:58.097Z,26.05
2022-08-14T20:15:24.604Z,25.97
2022-08-14T20:17:52.555Z,25.92
2022-08-14T20:20:30.565Z,25.90
2022-08-14T20:22:57.746Z,25.85
2022-08-14T20:25:28.218Z,25.79
2022-08-14T20:27:59.768Z,25.71
2022-08-14T20:30:34.124Z,25.65
2022-08-14T20:33:01.910Z,25.62
2022-08-14T20:35:35.519Z,25.57
2022-08-14T20:38:31.659Z,25.51
2022-08-14T20:40:50.279Z,25.46
2022-08-14T20:43:16.944Z,25.41
2022-08-14T20:45:43.196Z,25.38
2022-08-14T20:48:10.121Z,25.35
2022-08-14T20:50:44.923Z,25.33
2022-08-14T20:53:11.497Z,25.30
2022-08-14T20:55:41.780Z,25.28
2022-08-14T20:58:41.899Z,25.28
2022-08-14T21:00:57.855Z,25.25
2022-08-14T21:03:24.273Z,25.22
2022-08-14T21:05:56.716Z,25.18
2022-08-14T21:08:26.130Z,25.15
2022-08-14T21:10:52.526Z,25.11
2022-08-14T21:14:08.815Z,25.06
2022-08-14T21:16:33.256Z,25.03
2022-08-14T21:18:53.699Z,25.00
2022-08-14T21:21:19.944Z,24.97
2022-08-14T21:23:54.018Z,24.95
2022-08-14T21:26:51.173Z,24.94
2022-08-14T21:29:08.044Z,24.93
2022-08-14T21:31:34.270Z,24.89
2022-08-14T21:34:01.281Z,24.87
2022-08-14T21:36:31.902Z,24.83
2022-08-14T21:38:58.249Z,24.81
2022-08-14T21:41:43.241Z,24.79
2022-08-14T21:44:17.468Z,24.77
2022-08-14T21:46:44.667Z,24.75
2022-08-14T21:49:10.912Z,24.71
2022-08-14T21:51:53.452Z,24.68
2022-08-14T21:54:31.839Z,24.65
2022-08-14T21:56:58.843Z,24.61
2022-08-14T21:59:28.971Z,24.59
2022-08-14T22:02:01.082Z,24.54
2022-08-14T22:04:33.347Z,24.48
2022-08-14T22:07:01.194Z,24.43
2022-08-14T22:09:32.356Z,24.39
2022-08-14T22:11:58.997Z,24.36
2022-08-14T22:14:26.562Z,24.34
2022-08-14T22:17:03.307Z,24.28
2022-08-14T22:19:47.208Z,24.28
2022-08-14T22:22:20.859Z,24.22
2022-08-14T22:24:53.946Z,24.18
2022-08-14T22:27:26.110Z,24.13
2022-08-14T22:29:54.715Z,24.09
2022-08-14T22:32:35.006Z,24.05
2022-08-14T22:35:10.291Z,24.00
2022-08-14T22:37:36.674Z,23.96
2022-08-14T22:40:50.732Z,23.94
2022-08-14T22:42:59.904Z,23.91
2022-08-14T22:45:27.068Z,23.89
2022-08-14T22:48:03.064Z,23.86
2022-08-14T22:50:33.652Z,23.85
2022-08-14T22:53:00.268Z,23.83
2022-08-14T22:55:26.768Z,23.81
2022-08-14T22:57:53.085Z,23.77
2022-08-14T23:00:19.653Z,23.74
2022-08-14T23:02:46.050Z,23.71
2022-08-14T23:05:12.464Z,23.67
2022-08-14T23:09:01.722Z,23.65
2022-08-14T23:10:32.472Z,23.61
2022-08-14T23:13:00.491Z,23.57
2022-08-14T23:15:29.913Z,23.50
2022-08-14T23:17:56.719Z,23.47
2022-08-14T23:20:22.961Z,23.42
2022-08-14T23:22:49.182Z,23.39
2022-08-14T23:25:17.902Z,23.36
2022-08-14T23:28:03.306Z,23.32
2022-08-14T23:30:31.877Z,23.28
2022-08-14T23:33:01.776Z,23.23
2022-08-14T23:35:28.112Z,23.20
2022-08-14T23:37:54.387Z,23.15
2022-08-14T23:40:29.644Z,23.12
2022-08-14T23:42:56.574Z,23.10
2022-08-14T23:45:37.146Z,23.10
2022-08-14T23:48:03.836Z,23.05
2022-08-14T23:50:34.196Z,23.00
2022-08-14T23:53:07.439Z,22.96
2022-08-14T23:55:34.662Z,22.93
2022-08-14T23:58:01.150Z,22.92
